Kezdőlap
METAR-TAF:

METAR-TAF

Repülőterek :

Ciudad Obregón, Mexikó

földrajzi szélesség: 27-24N, földrajzi hosszúság: 109-50W, magasság: 62 m

Jelenlegi meteorológiai megfigyelések

A jelentés 1 órával és 32 perccel ezelõtt készült, 13:42 UTC
Szélcsend
Hőmérséklet 20°C
Páratartalom 37%
Légköri nyomás 1009 hPa
Látótávolság: 16.1 km
Derült ég

METAR: MMCN 261342Z 00000KT 10SM SKC 20/05 A2980 RMK HZY

Idő: 08:14 (15:14 UTC)

Előrejelzés

A jelentés 10 órával és 41 perccel ezelõtt készült, 04:33 UTC
Az előrejelzés 26-én 06 óra UTC és 27-én 06 óra UTC között érvényes
Nyugat-északnyugati szél 5 kt
Látótávolság: 10 km
Derült ég
26-én 1900 órától UTC szerint
Nyugati szél 10 kt
Látótávolság: 10 km
Derült ég
27-én 0200 órától UTC szerint
Nyugat-északnyugati szél 5 kt
Látótávolság: 10 km
Szórványos felhőzet 20000 lábon

TAF: MMCN 260433Z 2606/2706 30005KT P6SM SKC FM261900 26010KT P6SM SKC FM270200 30005KT P6SM SCT200

Meteorológiai megfigyelések és előrejelzések több, mint 4000 repülőtéren (METAR és TAF jelentéseket).

A térképen piros és sárga pontok jelzik az elérhető meteorológiai állomásokat.

Mozgassa az egeret a pont fölött, hogy megjelenjen az állomás neve.

Azután kattintson az időjárási megfigyelések és előrejelzések megtekintéséhez.

A térkép megváltoztatása: kattintson a fekete keresztel jelölt zöld gombra ráközelítéshez, a vonallal jelölt zöld gombra távolításhoz, vagy a zöld nyilakra a szomszédos térképek eléréséhez.


METAR-TAF: